• Join FlightAware (Why Join?)
  • Login
  • US Flag 
05:22AM EST


 

Airport Tracker/Info


-or-


 

Live Flight TrackerFlight Track Log ✈ CES2554 ✈ 19-Jun-2014 ✈ ZSLG / LYG - ZHHH / WUH

Flight Track Log - Related Links

Times and Time Zones

All times are in EDT time to prevent confusion due to time zone crossing. See the CES2554 flight status page for this flight to view local times or setup timezone preferences in your user account.

Time Position Orientation Groundspeed Altitude Reporting Facility
EDT Latitude Longitude Course Direction KTS MPH feet Rate Location/Type
09:59AM 34.0660 118.2141 227° Southwest  Level Estimated
10:00AM 34.0096 118.1413 227° Southwest  Level Estimated
10:01AM 33.9531 118.0686 227° Southwest  Level Estimated
10:02AM 33.8966 117.9960 227° Southwest  Level Estimated
10:03AM 33.8401 117.9235 227° Southwest  Level Estimated
10:04AM 33.7835 117.8511 227° Southwest  Level Estimated
10:05AM 33.7269 117.7787 227° Southwest  Level Estimated
10:06AM 33.6703 117.7065 227° Southwest  Level Estimated
10:07AM 33.6136 117.6344 227° Southwest  Level Estimated
10:08AM 33.5568 117.5624 227° Southwest  Level Estimated
10:09AM 33.5000 117.4904 227° Southwest  Level Estimated
10:10AM 33.4432 117.4186 227° Southwest  Level Estimated
10:11AM 33.3863 117.3469 227° Southwest  Level Estimated
10:12AM 33.3294 117.2752 226° Southwest  Level Estimated
10:13AM 33.2725 117.2037 226° Southwest  Level Estimated
10:14AM 33.2155 117.1322 226° Southwest  Level Estimated
10:15AM 33.1585 117.0608 226° Southwest  Level Estimated
10:16AM 33.1014 116.9895 226° Southwest  Level Estimated
10:17AM 33.0443 116.9184 226° Southwest  Level Estimated
10:18AM 32.9871 116.8473 226° Southwest  Level Estimated
10:19AM 32.9300 116.7763 226° Southwest  Level Estimated
10:20AM 32.8727 116.7054 226° Southwest  Level Estimated
10:21AM 32.8154 116.6345 226° Southwest  Level Estimated
10:22AM 32.7581 116.5638 226° Southwest  Level Estimated
10:23AM 32.7008 116.4932 226° Southwest  Level Estimated
10:24AM 32.6434 116.4226 226° Southwest  Level Estimated
10:25AM 32.5859 116.3522 226° Southwest  Level Estimated
10:26AM 32.5285 116.2818 226° Southwest  Level Estimated
10:27AM 32.4710 116.2115 226° Southwest  Level Estimated
10:28AM 32.4134 116.1413 226° Southwest  Level Estimated
10:29AM 32.3558 116.0713 226° Southwest  Level Estimated
10:30AM 32.2982 116.0013 226° Southwest  Level Estimated
10:31AM 32.2406 115.9313 226° Southwest  Level Estimated
10:32AM 32.1828 115.8615 226° Southwest  Level Estimated
10:33AM 32.1251 115.7918 226° Southwest  Level Estimated
10:34AM 32.0673 115.7221 226° Southwest  Level Estimated
10:35AM 32.0095 115.6525 226° Southwest  Level Estimated
10:36AM 31.9517 115.5831 226° Southwest  Level Estimated
10:37AM 31.8938 115.5137 226° Southwest  Level Estimated
10:38AM 31.8358 115.4444 225° Southwest  Level Estimated
10:39AM 31.7779 115.3752 225° Southwest  Level Estimated
10:40AM 31.7199 115.3060 225° Southwest  Level Estimated
10:41AM 31.6618 115.2370 225° Southwest  Level Estimated
10:42AM 31.6037 115.1681 225° Southwest  Level Estimated
10:43AM 31.5456 115.0992 225° Southwest  Level Estimated
10:44AM 31.4875 115.0304 225° Southwest  Level Estimated
10:45AM 31.4293 114.9617 225° Southwest  Level Estimated
10:46AM 31.3710 114.8931 225° Southwest  Level Estimated
10:47AM 31.3128 114.8246 225° Southwest  Level Estimated
10:48AM 31.2545 114.7561 225° Southwest  Level Estimated
10:49AM 31.1961 114.6878 225° Southwest  Level Estimated
10:50AM 31.1378 114.6195 225° Southwest  Level Estimated
10:51AM 31.0794 114.5513 225° Southwest  Level Estimated
10:52AM 31.0209 114.4832 225° Southwest  Level Estimated
10:53AM 30.9624 114.4152 225° Southwest  Level Estimated
10:54AM 30.9039 114.3472 225° Southwest  Level Estimated
10:55AM 30.8454 114.2794 225° Southwest  Level Estimated
10:56AM 30.7868 114.2116 225° Southwest  Level Estimated
10:57AM 30.7838 114.2081 225° Southwest  Level Estimated
10:58AM 30.7838 114.2081 North  Level Estimated
10:59AM 30.7838 114.2081 North  Level Estimated
11:00AM 30.7838 114.2081 North  Level Estimated
11:01AM 30.7838 114.2081 North  Level Estimated
11:02AM 30.7838 114.2081 North  Level Estimated
11:03AM 30.7838 114.2081 North  Level Estimated
11:04AM 30.7838 114.2081 North  Level Estimated
11:05AM 30.7838 114.2081 North  Level Estimated
11:06AM 30.7838 114.2081 North  Level Estimated
11:07AM 30.7838 114.2081 North  Level Estimated
11:08AM 30.7838 114.2081 North  Level Estimated
11:09AM 30.7838 114.2081 North  Level Estimated
11:10AM 30.7838 114.2081 North  Level Estimated
11:11AM 30.7838 114.2081 North  Level Estimated
11:12AM 30.7838 114.2081 North  Level Estimated